createdAt,value
2018-03-16T00:00:44.604Z,1002.22
2018-03-16T00:01:41.845Z,1002.16
2018-03-16T00:02:43.131Z,1002.21
2018-03-16T00:03:39.866Z,1002.25
2018-03-16T00:04:39.860Z,1002.23
2018-03-16T00:05:39.863Z,1002.22
2018-03-16T00:06:39.859Z,1002.21
2018-03-16T00:07:39.873Z,1002.24
2018-03-16T00:08:39.868Z,1002.2
2018-03-16T00:09:39.876Z,1002.24
2018-03-16T00:10:39.868Z,1002.27
2018-03-16T00:11:39.874Z,1002.22
2018-03-16T00:12:39.882Z,1002.23
2018-03-16T00:13:39.884Z,1002.25
2018-03-16T00:14:39.888Z,1002.25
2018-03-16T00:15:39.893Z,1002.28
2018-03-16T00:16:39.908Z,1002.27
2018-03-16T00:17:39.911Z,1002.28
2018-03-16T00:18:39.914Z,1002.33
2018-03-16T00:19:39.936Z,1002.32
2018-03-16T00:20:39.916Z,1002.34
2018-03-16T00:21:39.922Z,1002.3
2018-03-16T00:22:39.976Z,1002.34
2018-03-16T00:23:39.930Z,1002.35
2018-03-16T00:24:39.964Z,1002.37
2018-03-16T00:25:40.047Z,1002.4
2018-03-16T00:26:39.938Z,1002.4
2018-03-16T00:27:39.934Z,1002.41
2018-03-16T00:28:40.100Z,1002.41
2018-03-16T00:29:39.948Z,1002.41
2018-03-16T00:30:39.941Z,1002.46
2018-03-16T00:31:39.946Z,1002.46
2018-03-16T00:32:39.951Z,1002.5
2018-03-16T00:33:39.989Z,1002.52
2018-03-16T00:34:39.962Z,1002.53
2018-03-16T00:35:39.969Z,1002.53
2018-03-16T00:36:39.981Z,1002.54
2018-03-16T00:37:39.976Z,1002.54
2018-03-16T00:38:40.001Z,1002.55
2018-03-16T00:39:39.974Z,1002.55
2018-03-16T00:40:39.979Z,1002.55
2018-03-16T00:41:39.993Z,1002.56
2018-03-16T00:42:40.000Z,1002.57
2018-03-16T00:43:40.036Z,1002.57
2018-03-16T00:44:40.003Z,1002.53
2018-03-16T00:45:40.004Z,1002.55
2018-03-16T00:46:40.013Z,1002.58
2018-03-16T00:47:40.012Z,1002.54
2018-03-16T00:48:40.034Z,1002.56
2018-03-16T00:49:40.015Z,1002.63
2018-03-16T00:50:40.016Z,1002.62
2018-03-16T00:51:40.021Z,1002.63
2018-03-16T00:52:40.028Z,1002.61
2018-03-16T00:53:40.152Z,1002.59
2018-03-16T00:54:40.031Z,1002.65
2018-03-16T00:55:40.025Z,1002.65
2018-03-16T00:56:40.036Z,1002.62
2018-03-16T00:57:40.066Z,1002.65
2018-03-16T00:58:40.191Z,1002.62
2018-03-16T00:59:40.036Z,1002.66
2018-03-16T01:00:40.033Z,1002.65
2018-03-16T01:01:40.036Z,1002.66
2018-03-16T01:02:40.045Z,1002.67
2018-03-16T01:03:40.073Z,1002.66
2018-03-16T01:04:40.052Z,1002.65
2018-03-16T01:05:40.059Z,1002.64
2018-03-16T01:06:40.082Z,1002.69
2018-03-16T01:07:40.069Z,1002.65
2018-03-16T01:08:40.086Z,1002.67
2018-03-16T01:09:40.068Z,1002.64
2018-03-16T01:10:40.080Z,1002.63
2018-03-16T01:11:40.082Z,1002.63
2018-03-16T01:12:40.082Z,1002.64
2018-03-16T01:13:40.084Z,1002.62
2018-03-16T01:14:40.115Z,1002.6
2018-03-16T01:15:40.099Z,1002.6
2018-03-16T01:16:40.104Z,1002.62
2018-03-16T01:17:40.109Z,1002.6
2018-03-16T01:18:40.122Z,1002.62
2018-03-16T01:19:40.139Z,1002.63
2018-03-16T01:20:40.131Z,1002.63
2018-03-16T01:21:40.139Z,1002.67
2018-03-16T01:22:40.137Z,1002.67
2018-03-16T01:23:40.153Z,1002.68
2018-03-16T01:24:40.194Z,1002.69
2018-03-16T01:25:40.153Z,1002.69
2018-03-16T01:26:40.152Z,1002.69
2018-03-16T01:27:40.162Z,1002.71
2018-03-16T01:28:40.157Z,1002.7
2018-03-16T01:29:40.187Z,1002.69
2018-03-16T01:30:40.175Z,1002.7
2018-03-16T01:31:40.177Z,1002.7
2018-03-16T01:32:40.179Z,1002.69
2018-03-16T01:33:40.181Z,1002.74
2018-03-16T01:34:40.206Z,1002.68
2018-03-16T01:35:40.203Z,1002.7
2018-03-16T01:36:40.183Z,1002.69
2018-03-16T01:37:40.186Z,1002.69
2018-03-16T01:38:40.192Z,1002.72
2018-03-16T01:39:40.203Z,1002.71
2018-03-16T01:40:40.211Z,1002.72
2018-03-16T01:41:40.213Z,1002.68
2018-03-16T01:42:40.208Z,1002.73
2018-03-16T01:43:40.223Z,1002.73
2018-03-16T01:44:40.223Z,1002.75
2018-03-16T01:45:40.238Z,1002.73
2018-03-16T01:46:40.213Z,1002.73
2018-03-16T01:47:40.220Z,1002.77
2018-03-16T01:48:40.220Z,1002.77
2018-03-16T01:49:40.246Z,1002.77
2018-03-16T01:50:40.263Z,1002.78
2018-03-16T01:51:40.233Z,1002.77
2018-03-16T01:52:40.251Z,1002.78
2018-03-16T01:53:40.233Z,1002.78
2018-03-16T01:54:40.239Z,1002.79
2018-03-16T01:55:40.242Z,1002.8
2018-03-16T01:56:40.255Z,1002.8
2018-03-16T01:57:40.240Z,1002.78
2018-03-16T01:58:40.244Z,1002.79
2018-03-16T01:59:40.251Z,1002.77
2018-03-16T02:00:40.282Z,1002.82
2018-03-16T02:01:40.249Z,1002.76
2018-03-16T02:02:40.260Z,1002.82
2018-03-16T02:03:40.256Z,1002.8
2018-03-16T02:04:40.262Z,1002.82
2018-03-16T02:05:40.257Z,1002.81
2018-03-16T02:06:40.264Z,1002.77
2018-03-16T02:07:40.266Z,1002.79
2018-03-16T02:08:40.271Z,1002.79
2018-03-16T02:09:40.283Z,1002.77
2018-03-16T02:10:40.284Z,1002.78
2018-03-16T02:11:40.348Z,1002.76
2018-03-16T02:12:40.292Z,1002.8
2018-03-16T02:13:40.303Z,1002.8
2018-03-16T02:14:40.299Z,1002.78
2018-03-16T02:15:40.326Z,1002.79
2018-03-16T02:16:40.300Z,1002.79
2018-03-16T02:17:40.300Z,1002.76
2018-03-16T02:18:40.303Z,1002.75
2018-03-16T02:19:40.311Z,1002.76
2018-03-16T02:20:40.336Z,1002.77
2018-03-16T02:21:40.327Z,1002.76
2018-03-16T02:22:40.326Z,1002.76
2018-03-16T02:23:40.321Z,1002.74
2018-03-16T02:24:40.324Z,1002.74
2018-03-16T02:25:40.347Z,1002.71
2018-03-16T02:26:40.333Z,1002.75
2018-03-16T02:27:40.338Z,1002.77
2018-03-16T02:28:40.346Z,1002.73
2018-03-16T02:29:40.343Z,1002.72
2018-03-16T02:30:40.385Z,1002.75
2018-03-16T02:31:40.344Z,1002.72
2018-03-16T02:32:40.353Z,1002.74
2018-03-16T02:33:40.354Z,1002.72
2018-03-16T02:34:40.359Z,1002.72
2018-03-16T02:35:40.390Z,1002.71
2018-03-16T02:36:40.373Z,1002.68
2018-03-16T02:37:40.372Z,1002.7
2018-03-16T02:38:40.372Z,1002.69
2018-03-16T02:39:40.370Z,1002.69
2018-03-16T02:40:40.412Z,1002.7
2018-03-16T02:41:40.379Z,1002.71
2018-03-16T02:42:40.376Z,1002.72
2018-03-16T02:43:40.372Z,1002.74
2018-03-16T02:44:40.384Z,1002.71
2018-03-16T02:45:40.412Z,1002.71
2018-03-16T02:46:40.386Z,1002.73
2018-03-16T02:47:40.385Z,1002.7
2018-03-16T02:48:40.403Z,1002.73
2018-03-16T02:49:40.394Z,1002.72
2018-03-16T02:50:40.425Z,1002.75
2018-03-16T02:51:40.415Z,1002.71
2018-03-16T02:52:40.408Z,1002.73
2018-03-16T02:53:40.420Z,1002.73
2018-03-16T02:54:40.413Z,1002.71
2018-03-16T02:55:40.427Z,1002.69
2018-03-16T02:56:40.420Z,1002.67
2018-03-16T02:57:40.432Z,1002.69
2018-03-16T02:58:40.439Z,1002.69
2018-03-16T02:59:40.438Z,1002.72
2018-03-16T03:00:40.454Z,1002.69
2018-03-16T03:01:40.465Z,1002.7
2018-03-16T03:02:40.447Z,1002.68
2018-03-16T03:03:40.476Z,1002.7
2018-03-16T03:04:40.477Z,1002.71
2018-03-16T03:05:40.465Z,1002.7
2018-03-16T03:06:40.509Z,1002.67
2018-03-16T03:07:40.484Z,1002.71
2018-03-16T03:08:40.504Z,1002.65
2018-03-16T03:09:40.482Z,1002.69
2018-03-16T03:10:40.493Z,1002.65
2018-03-16T03:11:40.481Z,1002.7
2018-03-16T03:12:40.488Z,1002.67
2018-03-16T03:13:40.508Z,1002.69
2018-03-16T03:14:40.483Z,1002.64
2018-03-16T03:15:40.538Z,1002.71
2018-03-16T03:16:40.505Z,1002.68
2018-03-16T03:17:40.502Z,1002.73
2018-03-16T03:18:40.582Z,1002.71
2018-03-16T03:19:40.506Z,1002.7
2018-03-16T03:20:40.534Z,1002.69
2018-03-16T03:21:40.736Z,1002.68
2018-03-16T03:22:40.518Z,1002.7
2018-03-16T03:23:40.527Z,1002.67
2018-03-16T03:24:40.521Z,1002.66
2018-03-16T03:25:40.533Z,1002.67
2018-03-16T03:26:40.556Z,1002.7
2018-03-16T03:27:40.524Z,1002.72
2018-03-16T03:28:40.532Z,1002.71
2018-03-16T03:29:40.526Z,1002.71
2018-03-16T03:30:40.530Z,1002.72
2018-03-16T03:31:40.546Z,1002.72
2018-03-16T03:32:40.560Z,1002.72
2018-03-16T03:33:40.547Z,1002.73
2018-03-16T03:34:40.550Z,1002.72
2018-03-16T03:35:40.548Z,1002.73
2018-03-16T03:36:40.554Z,1002.78
2018-03-16T03:37:40.573Z,1002.74
2018-03-16T03:38:40.566Z,1002.73
2018-03-16T03:39:40.605Z,1002.76
2018-03-16T03:40:40.569Z,1002.74
2018-03-16T03:41:40.620Z,1002.74
2018-03-16T03:42:40.566Z,1002.72
2018-03-16T03:43:40.578Z,1002.75
2018-03-16T03:44:40.580Z,1002.74
2018-03-16T03:45:40.589Z,1002.73
2018-03-16T03:46:40.590Z,1002.72
2018-03-16T03:47:40.594Z,1002.74
2018-03-16T03:48:40.613Z,1002.76
2018-03-16T03:49:40.598Z,1002.7
2018-03-16T03:50:40.606Z,1002.75
2018-03-16T03:51:40.615Z,1002.73
2018-03-16T03:52:40.627Z,1002.79
2018-03-16T03:53:40.608Z,1002.75
2018-03-16T03:54:40.601Z,1002.76
2018-03-16T03:55:40.608Z,1002.74
2018-03-16T03:56:40.615Z,1002.77
2018-03-16T03:57:40.613Z,1002.75
2018-03-16T03:58:40.668Z,1002.74
2018-03-16T03:59:40.647Z,1002.73
2018-03-16T04:00:40.633Z,1002.73
2018-03-16T04:01:40.629Z,1002.78
2018-03-16T04:02:40.795Z,1002.79
2018-03-16T04:03:40.636Z,1002.8
2018-03-16T04:04:40.642Z,1002.8
2018-03-16T04:05:40.648Z,1002.78
2018-03-16T04:06:40.644Z,1002.83
2018-03-16T04:07:40.657Z,1002.84
2018-03-16T04:08:40.684Z,1002.8
2018-03-16T04:09:40.648Z,1002.83
2018-03-16T04:10:40.647Z,1002.81
2018-03-16T04:11:40.661Z,1002.8
2018-03-16T04:12:40.672Z,1002.83
2018-03-16T04:13:40.653Z,1002.88
2018-03-16T04:14:40.646Z,1002.86
2018-03-16T04:15:40.656Z,1002.92
2018-03-16T04:16:40.657Z,1002.89
2018-03-16T04:17:40.660Z,1002.92
2018-03-16T04:18:40.685Z,1002.88
2018-03-16T04:19:40.673Z,1002.89
2018-03-16T04:20:40.657Z,1002.87
2018-03-16T04:21:40.664Z,1002.86
2018-03-16T04:22:40.663Z,1002.85
2018-03-16T04:23:40.663Z,1002.89
2018-03-16T04:24:40.721Z,1002.9
2018-03-16T04:25:40.681Z,1002.83
2018-03-16T04:26:40.676Z,1002.84
2018-03-16T04:27:40.680Z,1002.85
2018-03-16T04:28:40.685Z,1002.83
2018-03-16T04:29:40.709Z,1002.79
2018-03-16T04:30:40.693Z,1002.88
2018-03-16T04:31:40.710Z,1002.91
2018-03-16T04:32:40.705Z,1002.88
2018-03-16T04:33:40.712Z,1002.89
2018-03-16T04:34:40.743Z,1002.85
2018-03-16T04:35:40.715Z,1002.83
2018-03-16T04:36:40.727Z,1002.82
2018-03-16T04:37:40.740Z,1002.77
2018-03-16T04:38:40.738Z,1002.78
2018-03-16T04:39:40.735Z,1002.81
2018-03-16T04:40:40.740Z,1002.78
2018-03-16T04:41:40.911Z,1002.85
2018-03-16T04:42:40.754Z,1002.84
2018-03-16T04:43:40.749Z,1002.9
2018-03-16T04:44:40.750Z,1002.9
2018-03-16T04:45:40.761Z,1002.93
2018-03-16T04:46:40.784Z,1002.93
2018-03-16T04:47:40.787Z,1002.93
2018-03-16T04:48:40.765Z,1002.95
2018-03-16T04:49:40.766Z,1002.95
2018-03-16T04:50:40.774Z,1002.98
2018-03-16T04:51:40.789Z,1002.97
2018-03-16T04:52:40.783Z,1002.97
2018-03-16T04:53:40.797Z,1002.96
2018-03-16T04:54:40.778Z,1002.96
2018-03-16T04:55:40.778Z,1002.92
2018-03-16T04:56:40.835Z,1002.93
2018-03-16T04:57:40.818Z,1002.95
2018-03-16T04:58:40.799Z,1002.96
2018-03-16T04:59:40.807Z,1003.04
2018-03-16T05:00:40.803Z,1003.03
2018-03-16T05:01:40.813Z,1003.07
2018-03-16T05:02:40.830Z,1003.06
2018-03-16T05:03:40.831Z,1003.04
2018-03-16T05:04:40.807Z,1003.03
2018-03-16T05:05:40.815Z,1003.04
2018-03-16T05:06:40.814Z,1003.1
2018-03-16T05:07:40.824Z,1003.05
2018-03-16T05:08:40.862Z,1003.08
2018-03-16T05:09:40.850Z,1003.12
2018-03-16T05:10:40.834Z,1003.09
2018-03-16T05:11:40.842Z,1003.09
2018-03-16T05:12:40.864Z,1003.11
2018-03-16T05:13:40.858Z,1003.09
2018-03-16T05:14:40.883Z,1003.1
2018-03-16T05:15:41.186Z,1003.11
2018-03-16T05:16:40.854Z,1003.11
2018-03-16T05:17:40.863Z,1003.15
2018-03-16T05:18:40.920Z,1003.14
2018-03-16T05:19:40.870Z,1003.15
2018-03-16T05:20:40.893Z,1003.14
2018-03-16T05:21:40.900Z,1003.15
2018-03-16T05:22:40.891Z,1003.16
2018-03-16T05:23:40.908Z,1003.14
2018-03-16T05:24:41.095Z,1003.17
2018-03-16T05:25:41.143Z,1003.12
2018-03-16T05:26:40.930Z,1003.16
2018-03-16T05:27:40.915Z,1003.18
2018-03-16T05:28:40.928Z,1003.19
2018-03-16T05:29:40.914Z,1003.19
2018-03-16T05:30:40.994Z,1003.19
2018-03-16T05:31:40.940Z,1003.21
2018-03-16T05:32:40.915Z,1003.18
2018-03-16T05:33:40.926Z,1003.23
2018-03-16T05:34:40.920Z,1003.29
2018-03-16T05:35:40.924Z,1003.3
2018-03-16T05:36:41.203Z,1003.29
2018-03-16T05:37:40.941Z,1003.34
2018-03-16T05:38:40.946Z,1003.33
2018-03-16T05:39:40.947Z,1003.39
2018-03-16T05:40:41.038Z,1003.34
2018-03-16T05:41:40.976Z,1003.36
2018-03-16T05:42:40.962Z,1003.35
2018-03-16T05:43:40.961Z,1003.34
2018-03-16T05:44:40.961Z,1003.39
2018-03-16T05:45:40.978Z,1003.4
2018-03-16T05:46:40.978Z,1003.43
2018-03-16T05:47:40.982Z,1003.42
2018-03-16T05:48:40.978Z,1003.46
2018-03-16T05:49:40.986Z,1003.4
2018-03-16T05:50:40.993Z,1003.42
2018-03-16T05:51:40.983Z,1003.42
2018-03-16T05:52:41.024Z,1003.42
2018-03-16T05:53:41.058Z,1003.38
2018-03-16T05:54:41.005Z,1003.41
2018-03-16T05:55:40.999Z,1003.37
2018-03-16T05:56:41.040Z,1003.38
2018-03-16T05:57:41.139Z,1003.36
2018-03-16T05:58:41.032Z,1003.39
2018-03-16T05:59:41.013Z,1003.35
2018-03-16T06:00:41.097Z,1003.36
2018-03-16T06:01:41.032Z,1003.35
2018-03-16T06:02:41.054Z,1003.35
2018-03-16T06:03:41.065Z,1003.31
2018-03-16T06:04:41.036Z,1003.33
2018-03-16T06:05:41.035Z,1003.26
2018-03-16T06:06:41.038Z,1003.25
2018-03-16T06:07:41.052Z,1003.29
2018-03-16T06:08:41.063Z,1003.31
2018-03-16T06:09:41.044Z,1003.28
2018-03-16T06:10:41.046Z,1003.31
2018-03-16T06:11:41.060Z,1003.32
2018-03-16T06:12:41.049Z,1003.34
2018-03-16T06:13:41.074Z,1003.41
2018-03-16T06:14:41.061Z,1003.37
2018-03-16T06:15:41.057Z,1003.39
2018-03-16T06:16:41.092Z,1003.41
2018-03-16T06:17:41.117Z,1003.41
2018-03-16T06:18:41.517Z,1003.41
2018-03-16T06:19:41.074Z,1003.43
2018-03-16T06:20:41.070Z,1003.44
2018-03-16T06:21:41.080Z,1003.47
2018-03-16T06:22:41.086Z,1003.52
2018-03-16T06:23:41.116Z,1003.52
2018-03-16T06:24:41.157Z,1003.47
2018-03-16T06:25:41.106Z,1003.51
2018-03-16T06:26:41.099Z,1003.54
2018-03-16T06:27:41.099Z,1003.56
2018-03-16T06:28:41.109Z,1003.53
2018-03-16T06:29:41.115Z,1003.56
2018-03-16T06:30:41.121Z,1003.55
2018-03-16T06:31:41.112Z,1003.55
2018-03-16T06:32:41.124Z,1003.59
2018-03-16T06:33:41.121Z,1003.6
2018-03-16T06:34:41.148Z,1003.6
2018-03-16T06:35:41.127Z,1003.6
2018-03-16T06:36:41.138Z,1003.57
2018-03-16T06:37:41.137Z,1003.56
2018-03-16T06:38:41.144Z,1003.62
2018-03-16T06:39:41.174Z,1003.65
2018-03-16T06:40:41.148Z,1003.6
2018-03-16T06:41:41.177Z,1003.65
2018-03-16T06:42:41.184Z,1003.63
2018-03-16T06:43:41.161Z,1003.68
2018-03-16T06:44:41.620Z,1003.67
2018-03-16T06:45:41.178Z,1003.69
2018-03-16T06:46:41.200Z,1003.69
2018-03-16T06:47:41.195Z,1003.65
2018-03-16T06:48:41.168Z,1003.72
2018-03-16T06:49:41.168Z,1003.71
2018-03-16T06:50:41.166Z,1003.69
2018-03-16T06:51:41.301Z,1003.74
2018-03-16T06:52:41.173Z,1003.75
2018-03-16T06:53:41.175Z,1003.72
2018-03-16T06:54:41.202Z,1003.75
2018-03-16T06:55:41.195Z,1003.75
2018-03-16T06:56:41.243Z,1003.73
2018-03-16T06:57:41.202Z,1003.74
2018-03-16T06:58:41.209Z,1003.75
2018-03-16T06:59:41.203Z,1003.78
2018-03-16T07:00:41.206Z,1003.77
2018-03-16T07:01:41.208Z,1003.79
2018-03-16T07:02:41.214Z,1003.8
2018-03-16T07:03:41.231Z,1003.8
2018-03-16T07:04:41.234Z,1003.82
2018-03-16T07:05:41.260Z,1003.77
2018-03-16T07:06:41.225Z,1003.82
2018-03-16T07:07:41.237Z,1003.83
2018-03-16T07:08:41.239Z,1003.83
2018-03-16T07:09:41.242Z,1003.89
2018-03-16T07:10:41.249Z,1003.87
2018-03-16T07:11:41.250Z,1003.89
2018-03-16T07:12:41.347Z,1003.9
2018-03-16T07:13:41.250Z,1003.92
2018-03-16T07:14:41.264Z,1003.95
2018-03-16T07:15:41.274Z,1003.99
2018-03-16T07:16:41.251Z,1004.02
2018-03-16T07:17:41.263Z,1004.02
2018-03-16T07:18:41.270Z,1004.02
2018-03-16T07:19:41.363Z,1004.05
2018-03-16T07:20:41.304Z,1004.1
2018-03-16T07:21:41.265Z,1004.09
2018-03-16T07:22:41.285Z,1004.11
2018-03-16T07:23:41.282Z,1004.11
2018-03-16T07:24:41.287Z,1004.15
2018-03-16T07:25:41.307Z,1004.13
2018-03-16T07:26:41.304Z,1004.16
2018-03-16T07:27:41.296Z,1004.17
2018-03-16T07:28:41.332Z,1004.18
2018-03-16T07:29:41.304Z,1004.16
2018-03-16T07:30:41.381Z,1004.23
2018-03-16T07:31:41.315Z,1004.23
2018-03-16T07:32:41.328Z,1004.23
2018-03-16T07:33:41.322Z,1004.27
2018-03-16T07:34:41.318Z,1004.25
2018-03-16T07:35:41.312Z,1004.27
2018-03-16T07:36:41.343Z,1004.31
2018-03-16T07:37:41.330Z,1004.32
2018-03-16T07:38:41.333Z,1004.36
2018-03-16T07:39:41.328Z,1004.35
2018-03-16T07:40:41.332Z,1004.33
2018-03-16T07:41:41.371Z,1004.36
2018-03-16T07:42:41.344Z,1004.37
2018-03-16T07:43:41.358Z,1004.33
2018-03-16T07:44:41.354Z,1004.34
2018-03-16T07:45:41.368Z,1004.39
2018-03-16T07:46:41.411Z,1004.42
2018-03-16T07:47:41.359Z,1004.41
2018-03-16T07:48:41.384Z,1004.44
2018-03-16T07:49:41.366Z,1004.47
2018-03-16T07:50:41.375Z,1004.49
2018-03-16T07:51:41.386Z,1004.48
2018-03-16T07:52:41.490Z,1004.5
2018-03-16T07:53:41.377Z,1004.46
2018-03-16T07:54:41.373Z,1004.48
2018-03-16T07:55:41.420Z,1004.47
2018-03-16T07:56:41.406Z,1004.51
2018-03-16T07:57:41.383Z,1004.5
2018-03-16T07:58:41.383Z,1004.52
2018-03-16T07:59:41.395Z,1004.58
2018-03-16T08:00:41.401Z,1004.57
2018-03-16T08:01:41.419Z,1004.58
2018-03-16T08:02:41.408Z,1004.58
2018-03-16T08:03:41.414Z,1004.58
2018-03-16T08:04:41.415Z,1004.61
2018-03-16T08:05:41.423Z,1004.59
2018-03-16T08:06:41.471Z,1004.63
2018-03-16T08:07:41.416Z,1004.59
2018-03-16T08:08:41.482Z,1004.63
2018-03-16T08:09:41.430Z,1004.67
2018-03-16T08:10:41.443Z,1004.63
2018-03-16T08:11:41.459Z,1004.67
2018-03-16T08:12:41.450Z,1004.68
2018-03-16T08:13:41.443Z,1004.71
2018-03-16T08:14:41.442Z,1004.7
2018-03-16T08:15:41.440Z,1004.7
2018-03-16T08:16:41.479Z,1004.73
2018-03-16T08:17:41.444Z,1004.75
2018-03-16T08:18:41.455Z,1004.74
2018-03-16T08:19:41.454Z,1004.76
2018-03-16T08:20:41.450Z,1004.76
2018-03-16T08:21:41.482Z,1004.77
2018-03-16T08:22:41.477Z,1004.71
2018-03-16T08:23:41.478Z,1004.77
2018-03-16T08:24:41.466Z,1004.75
2018-03-16T08:25:41.463Z,1004.81
2018-03-16T08:26:41.489Z,1004.78
2018-03-16T08:27:41.473Z,1004.79
2018-03-16T08:28:41.476Z,1004.8
2018-03-16T08:29:41.481Z,1004.8
2018-03-16T08:30:41.489Z,1004.79
2018-03-16T08:31:41.502Z,1004.79
2018-03-16T08:32:41.495Z,1004.85
2018-03-16T08:33:41.501Z,1004.8
2018-03-16T08:34:41.518Z,1004.82
2018-03-16T08:35:41.491Z,1004.82
2018-03-16T08:36:41.509Z,1004.79
2018-03-16T08:37:41.504Z,1004.82
2018-03-16T08:38:41.501Z,1004.83
2018-03-16T08:39:41.506Z,1004.8
2018-03-16T08:40:41.516Z,1004.83
2018-03-16T08:41:41.509Z,1004.8
2018-03-16T08:42:41.515Z,1004.85
2018-03-16T08:43:41.785Z,1004.8
2018-03-16T08:44:41.512Z,1004.81
2018-03-16T08:45:41.520Z,1004.79
2018-03-16T08:46:41.517Z,1004.83
2018-03-16T08:47:41.522Z,1004.79
2018-03-16T08:48:41.556Z,1004.82
2018-03-16T08:49:41.543Z,1004.81
2018-03-16T08:50:41.541Z,1004.83
2018-03-16T08:51:41.551Z,1004.78
2018-03-16T08:52:41.555Z,1004.83
2018-03-16T08:53:41.581Z,1004.81
2018-03-16T08:54:41.556Z,1004.82
2018-03-16T08:55:41.568Z,1004.82
2018-03-16T08:56:41.571Z,1004.88
2018-03-16T08:57:41.576Z,1004.83
2018-03-16T08:58:41.595Z,1004.83
2018-03-16T08:59:41.632Z,1004.88
2018-03-16T09:00:41.586Z,1004.9
2018-03-16T09:01:41.582Z,1004.89
2018-03-16T09:02:41.591Z,1004.9
2018-03-16T09:03:41.610Z,1004.91
2018-03-16T09:04:41.599Z,1004.91
2018-03-16T09:05:41.592Z,1004.89
2018-03-16T09:06:41.593Z,1004.88
2018-03-16T09:07:41.610Z,1004.93
2018-03-16T09:08:41.629Z,1004.95
2018-03-16T09:09:41.613Z,1004.94
2018-03-16T09:10:41.615Z,1004.89
2018-03-16T09:11:41.614Z,1004.94
2018-03-16T09:12:41.623Z,1004.94
2018-03-16T09:13:41.623Z,1004.95
2018-03-16T09:14:41.655Z,1004.89
2018-03-16T09:15:41.629Z,1004.92
2018-03-16T09:16:41.622Z,1004.94
2018-03-16T09:17:41.635Z,1004.93
2018-03-16T09:18:41.653Z,1004.93
2018-03-16T09:19:41.664Z,1004.96
2018-03-16T09:20:41.633Z,1004.96
2018-03-16T09:21:41.639Z,1004.98
2018-03-16T09:22:41.642Z,1004.99
2018-03-16T09:23:41.652Z,1004.99
2018-03-16T09:24:41.661Z,1004.99
2018-03-16T09:25:41.658Z,1005.01
2018-03-16T09:26:41.667Z,1004.99
2018-03-16T09:27:41.656Z,1004.99
2018-03-16T09:28:41.663Z,1005
2018-03-16T09:29:41.762Z,1005
2018-03-16T09:30:41.677Z,1005.01
2018-03-16T09:31:41.684Z,1004.99
2018-03-16T09:32:41.878Z,1005.04
2018-03-16T09:33:41.674Z,1005.05
2018-03-16T09:34:41.707Z,1005.01
2018-03-16T09:35:41.719Z,1005.04
2018-03-16T09:36:41.678Z,1005.07
2018-03-16T09:37:41.687Z,1005.08
2018-03-16T09:38:41.685Z,1005.09
2018-03-16T09:39:41.723Z,1005.06
2018-03-16T09:40:41.703Z,1005.11
2018-03-16T09:41:41.707Z,1005.11
2018-03-16T09:42:41.701Z,1005.12
2018-03-16T09:43:41.751Z,1005.16
2018-03-16T09:44:41.730Z,1005.14
2018-03-16T09:45:41.715Z,1005.18
2018-03-16T09:46:41.719Z,1005.18
2018-03-16T09:47:41.731Z,1005.19
2018-03-16T09:48:41.732Z,1005.21
2018-03-16T09:49:41.761Z,1005.18
2018-03-16T09:50:41.863Z,1005.17
2018-03-16T09:51:41.750Z,1005.25
2018-03-16T09:52:41.759Z,1005.18
2018-03-16T09:53:41.757Z,1005.18
2018-03-16T09:54:41.774Z,1005.2
2018-03-16T09:55:41.753Z,1005.21
2018-03-16T09:56:42.029Z,1005.23
2018-03-16T09:57:41.773Z,1005.22
2018-03-16T09:58:41.777Z,1005.22
2018-03-16T09:59:41.776Z,1005.23
2018-03-16T10:00:41.782Z,1005.24
2018-03-16T10:01:41.801Z,1005.25
2018-03-16T10:02:41.783Z,1005.22
2018-03-16T10:03:41.790Z,1005.22
2018-03-16T10:04:41.786Z,1005.24
2018-03-16T10:05:41.786Z,1005.21
2018-03-16T10:06:41.812Z,1005.21
2018-03-16T10:07:41.786Z,1005.21
2018-03-16T10:08:41.791Z,1005.2
2018-03-16T10:09:41.817Z,1005.18
2018-03-16T10:10:41.804Z,1005.13
2018-03-16T10:11:41.815Z,1005.11
2018-03-16T10:12:41.808Z,1005.16
2018-03-16T10:13:41.813Z,1005.12
2018-03-16T10:14:41.812Z,1005.14
2018-03-16T10:15:41.819Z,1005.17
2018-03-16T10:16:41.837Z,1005.17
2018-03-16T10:17:41.866Z,1005.17
2018-03-16T10:18:41.823Z,1005.18
2018-03-16T10:19:42.117Z,1005.19
2018-03-16T10:20:41.853Z,1005.16
2018-03-16T10:21:41.836Z,1005.19
2018-03-16T10:22:41.829Z,1005.17
2018-03-16T10:23:41.847Z,1005.18
2018-03-16T10:24:41.855Z,1005.25
2018-03-16T10:25:41.892Z,1005.23
2018-03-16T10:26:41.843Z,1005.2
2018-03-16T10:27:41.887Z,1005.22
2018-03-16T10:28:41.834Z,1005.22
2018-03-16T10:29:41.837Z,1005.18
2018-03-16T10:30:41.839Z,1005.18
2018-03-16T10:31:41.867Z,1005.18
2018-03-16T10:32:41.849Z,1005.2
2018-03-16T10:33:41.856Z,1005.17
2018-03-16T10:34:41.860Z,1005.16
2018-03-16T10:35:41.877Z,1005.11
2018-03-16T10:36:41.865Z,1005.12
2018-03-16T10:37:41.871Z,1005.18
2018-03-16T10:38:41.870Z,1005.16
2018-03-16T10:39:41.939Z,1005.18
2018-03-16T10:40:41.896Z,1005.17
2018-03-16T10:41:41.875Z,1005.2
2018-03-16T10:42:41.876Z,1005.15
2018-03-16T10:43:41.882Z,1005.21
2018-03-16T10:44:41.888Z,1005.19
2018-03-16T10:45:42.186Z,1005.19
2018-03-16T10:46:41.888Z,1005.22
2018-03-16T10:47:41.891Z,1005.15
2018-03-16T10:48:41.886Z,1005.15
2018-03-16T10:49:41.893Z,1005.16
2018-03-16T10:50:41.920Z,1005.12
2018-03-16T10:51:41.904Z,1005.12
2018-03-16T10:52:41.910Z,1005.13
2018-03-16T10:53:41.906Z,1005.15
2018-03-16T10:54:41.912Z,1005.15
2018-03-16T10:55:41.937Z,1005.13
2018-03-16T10:56:41.934Z,1005.16
2018-03-16T10:57:41.921Z,1005.14
2018-03-16T10:58:41.922Z,1005.15
2018-03-16T10:59:41.938Z,1005.13
2018-03-16T11:00:41.997Z,1005.13
2018-03-16T11:01:41.943Z,1005.13
2018-03-16T11:02:41.994Z,1005.15
2018-03-16T11:03:41.945Z,1005.14
2018-03-16T11:04:41.952Z,1005.16
2018-03-16T11:05:41.956Z,1005.13
2018-03-16T11:06:42.105Z,1005.12
2018-03-16T11:07:41.967Z,1005.12
2018-03-16T11:08:41.958Z,1005.11
2018-03-16T11:09:41.962Z,1005.07
2018-03-16T11:10:41.966Z,1005.09
2018-03-16T11:11:42.262Z,1005.12
2018-03-16T11:12:41.961Z,1005.12
2018-03-16T11:13:41.973Z,1005.1
2018-03-16T11:14:41.977Z,1005.12
2018-03-16T11:15:41.972Z,1005.15
2018-03-16T11:16:42.006Z,1005.15
2018-03-16T11:17:41.980Z,1005.17
2018-03-16T11:18:41.982Z,1005.18
2018-03-16T11:19:41.974Z,1005.16
2018-03-16T11:20:41.977Z,1005.13
2018-03-16T11:21:41.971Z,1005.13
2018-03-16T11:22:41.976Z,1005.13
2018-03-16T11:23:41.985Z,1005.15
2018-03-16T11:24:41.995Z,1005.16
2018-03-16T11:25:41.998Z,1005.16
2018-03-16T11:26:42.003Z,1005.15
2018-03-16T11:27:42.020Z,1005.13
2018-03-16T11:28:41.997Z,1005.16
2018-03-16T11:29:42.003Z,1005.11
2018-03-16T11:30:42.009Z,1005.17
2018-03-16T11:31:42.017Z,1005.15
2018-03-16T11:32:42.001Z,1005.16
2018-03-16T11:33:41.999Z,1005.16
2018-03-16T11:34:42.004Z,1005.13
2018-03-16T11:35:41.999Z,1005.12
2018-03-16T11:36:42.141Z,1005.11
2018-03-16T11:37:42.012Z,1005.15
2018-03-16T11:38:42.021Z,1005.14
2018-03-16T11:39:42.018Z,1005.16
2018-03-16T11:40:42.022Z,1005.11
2018-03-16T11:41:42.046Z,1005.11
2018-03-16T11:42:42.036Z,1005.11
2018-03-16T11:43:42.044Z,1005.14
2018-03-16T11:44:42.052Z,1005.1
2018-03-16T11:45:42.055Z,1005.12
2018-03-16T11:46:42.074Z,1005.11
2018-03-16T11:47:42.064Z,1005.16
2018-03-16T11:48:42.062Z,1005.11
2018-03-16T11:49:42.059Z,1005.09
2018-03-16T11:50:42.082Z,1005.11
2018-03-16T11:51:42.096Z,1005.11
2018-03-16T11:52:42.074Z,1005.1
2018-03-16T11:53:42.182Z,1005.1
2018-03-16T11:54:42.076Z,1005.15
2018-03-16T11:55:42.078Z,1005.17
2018-03-16T11:56:42.109Z,1005.11
2018-03-16T11:57:42.080Z,1005.16
2018-03-16T11:58:42.094Z,1005.14
2018-03-16T11:59:42.211Z,1005.1
2018-03-16T12:00:42.099Z,1005.11
2018-03-16T12:01:42.117Z,1005.12
2018-03-16T12:02:42.106Z,1005.13
2018-03-16T12:03:42.102Z,1005.14
2018-03-16T12:04:42.103Z,1005.14
2018-03-16T12:05:42.947Z,1005.08
2018-03-16T12:06:43.830Z,1005.11
2018-03-16T12:07:42.108Z,1005.1
2018-03-16T12:08:42.111Z,1005.08